Time;durP1;ratioP1;P1;durP2;ratioP2;P2;SDS_P1;SDS_P2;PMS_P1;PMS_P2;Temp;Humidity;BMP_temperature;BMP_pressure;BME280_temperature;BME280_humidity;BME280_pressure;Samples;Min_cycle;Max_cycle;Signal;HPM_P1;HPM_P2
2024/04/14 00:00:52;;;;;;;22.30;12.80;;;;;;;15.39;56.41;100744.42;105818;1257;61345;-59
2024/04/14 00:03:20;;;;;;;18.30;12.00;;;;;;;15.43;56.33;100739.36;105239;1257;61257;-59
2024/04/14 00:05:48;;;;;;;17.90;12.70;;;;;;;15.44;56.36;100738.06;105207;1252;65727;-59
2024/04/14 00:08:16;;;;;;;19.40;12.80;;;;;;;15.42;56.61;100738.73;105287;1253;69998;-59
2024/04/14 00:10:43;;;;;;;16.90;12.60;;;;;;;15.39;56.79;100736.02;105243;1253;63770;-60
2024/04/14 00:13:11;;;;;;;15.70;11.90;;;;;;;15.34;56.92;100733.97;105203;1254;61226;-59
2024/04/14 00:15:38;;;;;;;15.70;12.30;;;;;;;15.27;56.89;100730.23;105397;1253;61349;-59
2024/04/14 00:18:06;;;;;;;20.30;13.20;;;;;;;15.20;57.05;100734.73;105226;1253;64551;-59
2024/04/14 00:20:35;;;;;;;16.40;10.80;;;;;;;15.15;57.10;100733.86;106418;1255;61216;-58
2024/04/14 00:23:03;;;;;;;15.80;12.10;;;;;;;15.13;57.03;100730.33;105569;1258;62521;-59
2024/04/14 00:25:32;;;;;;;16.40;12.90;;;;;;;15.15;57.02;100729.63;105705;1252;61165;-59
2024/04/14 00:28:00;;;;;;;16.00;11.20;;;;;;;15.12;56.93;100727.23;105256;1256;61144;-58
2024/04/14 00:30:27;;;;;;;16.30;11.80;;;;;;;15.09;57.14;100726.98;105249;1258;65838;-59
2024/04/14 00:32:55;;;;;;;16.60;11.70;;;;;;;15.05;57.22;100733.01;105736;1255;61504;-59
2024/04/14 00:35:25;;;;;;;17.60;12.30;;;;;;;14.97;57.44;100736.70;105910;1254;62550;-60
2024/04/14 00:37:52;;;;;;;15.40;11.60;;;;;;;14.90;57.46;100742.88;105223;1254;61300;-58
2024/04/14 00:40:20;;;;;;;12.30;10.10;;;;;;;14.81;57.56;100743.21;105293;1254;61304;-60
2024/04/14 00:42:47;;;;;;;12.40;9.20;;;;;;;14.77;57.53;100744.10;105300;1254;65755;-60
2024/04/14 00:45:16;;;;;;;13.70;9.80;;;;;;;14.76;57.45;100746.13;105255;1257;61567;-60
2024/04/14 00:47:43;;;;;;;15.00;10.80;;;;;;;14.72;57.46;100749.45;105409;1254;62447;-57
2024/04/14 00:50:13;;;;;;;14.80;10.00;;;;;;;14.65;57.43;100752.24;105249;1254;61336;-59
2024/04/14 00:52:40;;;;;;;13.90;10.30;;;;;;;14.55;57.37;100751.46;105404;1259;61761;-59
2024/04/14 00:55:09;;;;;;;16.30;10.80;;;;;;;14.46;57.50;100753.59;105537;1254;64418;-59
2024/04/14 00:57:37;;;;;;;15.90;10.10;;;;;;;14.39;57.68;100750.66;105623;1254;61266;-58
2024/04/14 01:00:07;;;;;;;16.50;10.00;;;;;;;14.38;57.67;100745.84;105427;1254;63709;-60
2024/04/14 01:02:35;;;;;;;13.60;9.90;;;;;;;14.36;57.77;100747.76;105573;1254;61316;-60
2024/04/14 01:05:04;;;;;;;11.50;8.80;;;;;;;14.36;57.55;100743.35;105685;1254;61812;-60
2024/04/14 01:07:32;;;;;;;13.60;9.60;;;;;;;14.37;57.61;100739.01;105739;1253;66210;-59
2024/04/14 01:09:59;;;;;;;13.40;9.00;;;;;;;14.40;57.59;100739.29;105306;1254;61388;-59
2024/04/14 01:12:27;;;;;;;12.90;9.80;;;;;;;14.40;57.73;100741.18;105259;1258;63772;-59
2024/04/14 01:14:55;;;;;;;15.20;9.00;;;;;;;14.39;57.81;100732.45;105291;1254;61321;-60
2024/04/14 01:17:22;;;;;;;13.40;9.40;;;;;;;14.40;57.86;100735.95;105909;1254;61266;-59
2024/04/14 01:19:50;;;;;;;13.50;9.50;;;;;;;14.41;57.79;100734.48;106005;1253;66269;-60
2024/04/14 01:22:18;;;;;;;14.80;9.70;;;;;;;14.40;57.76;100734.50;105354;1258;61441;-58
2024/04/14 01:24:46;;;;;;;12.80;9.00;;;;;;;14.44;57.69;100736.45;105274;1259;63750;-59
2024/04/14 01:27:14;;;;;;;14.50;9.20;;;;;;;14.48;57.47;100730.82;105306;1259;61256;-59
2024/04/14 01:29:42;;;;;;;12.40;9.00;;;;;;;14.47;57.38;100735.66;105467;1254;61331;-57
2024/04/14 01:32:10;;;;;;;11.20;8.60;;;;;;;14.43;57.38;100734.04;105377;1254;65787;-58
2024/04/14 01:34:37;;;;;;;14.90;9.40;;;;;;;14.38;57.32;100732.60;105361;1259;61327;-59
2024/04/14 01:37:05;;;;;;;12.60;8.70;;;;;;;14.32;57.36;100729.45;105192;1257;63715;-59
2024/04/14 01:39:32;;;;;;;11.90;8.40;;;;;;;14.27;57.36;100732.67;105166;1254;61454;-59
2024/04/14 01:42:00;;;;;;;12.80;8.60;;;;;;;14.21;57.46;100737.98;105190;1254;61333;-59
2024/04/14 01:44:27;;;;;;;12.80;7.80;;;;;;;14.11;57.66;100738.34;105773;1254;65752;-59
2024/04/14 01:46:56;;;;;;;11.90;7.60;;;;;;;14.05;57.72;100735.65;105840;1254;61366;-59
2024/04/14 01:49:23;;;;;;;10.30;7.30;;;;;;;14.04;57.79;100731.88;105321;1254;62467;-60
2024/04/14 01:51:51;;;;;;;13.90;8.70;;;;;;;14.05;57.89;100732.84;105864;1258;61362;-61
2024/04/14 01:54:19;;;;;;;15.10;8.60;;;;;;;14.05;58.01;100731.95;105840;1259;61190;-58
2024/04/14 01:56:46;;;;;;;14.40;8.50;;;;;;;14.03;58.18;100728.66;105304;1254;64497;-59
2024/04/14 01:59:14;;;;;;;10.70;8.00;;;;;;;13.98;58.09;100731.55;105341;1254;61692;-62
2024/04/14 02:01:41;;;;;;;13.30;8.50;;;;;;;13.93;58.11;100732.36;105376;1254;63749;-60
2024/04/14 02:04:09;;;;;;;11.40;8.00;;;;;;;13.87;58.25;100731.80;105365;1254;61339;-59
2024/04/14 02:06:36;;;;;;;11.90;8.20;;;;;;;13.82;58.22;100724.98;105393;1254;61237;-60
2024/04/14 02:09:04;;;;;;;12.80;7.60;;;;;;;13.81;58.31;100722.67;105610;1259;65737;-60
2024/04/14 02:11:32;;;;;;;9.80;7.40;;;;;;;13.84;58.24;100730.50;105269;1254;61297;-60
2024/04/14 02:13:59;;;;;;;14.10;8.00;;;;;;;13.85;58.14;100740.63;105199;1254;62479;-59
2024/04/14 02:16:27;;;;;;;11.70;7.20;;;;;;;13.82;58.09;100749.84;105223;1259;61365;-59
2024/04/14 02:18:54;;;;;;;10.90;7.50;;;;;;;13.77;58.09;100754.02;105289;1255;61328;-58
2024/04/14 02:21:23;;;;;;;10.20;7.00;;;;;;;13.71;58.09;100757.75;105742;1254;64481;-59
2024/04/14 02:23:50;;;;;;;10.30;6.70;;;;;;;13.66;58.11;100760.45;106119;1259;61218;-59
2024/04/14 02:26:19;;;;;;;11.60;8.00;;;;;;;13.62;58.10;100759.61;105300;1254;62431;-58
2024/04/14 02:28:46;;;;;;;9.50;7.00;;;;;;;13.60;58.14;100763.81;107733;1254;61224;-59
2024/04/14 02:31:14;;;;;;;12.80;7.10;;;;;;;13.59;58.14;100765.13;105229;1258;61239;-58
2024/04/14 02:33:42;;;;;;;9.80;6.90;;;;;;;13.57;58.08;100768.96;105024;1254;66430;-60
2024/04/14 02:36:09;;;;;;;8.90;6.30;;;;;;;13.61;58.13;100768.15;105187;1258;61294;-58
2024/04/14 02:38:36;;;;;;;9.90;6.10;;;;;;;13.68;58.08;100771.03;106126;1256;62486;-59
2024/04/14 02:41:04;;;;;;;10.90;6.70;;;;;;;13.74;58.12;100773.14;105031;1256;61235;-60
2024/04/14 02:43:35;;;;;;;9.30;6.60;;;;;;;13.76;58.11;100767.85;106283;1259;219072;-60
2024/04/14 02:47:59;;;;;;;9.30;6.50;;;;;;;13.40;59.16;100763.55;102023;1295;601217;-60
2024/04/14 02:50:28;;;;;;;8.80;6.60;;;;;;;13.58;58.53;100768.04;103911;1271;59735;-60
2024/04/14 02:52:55;;;;;;;8.20;6.30;;;;;;;13.54;58.58;100777.90;104208;1273;59515;-60
2024/04/14 02:55:23;;;;;;;10.30;6.50;;;;;;;13.51;58.64;100773.38;104302;1269;64295;-60
2024/04/14 02:57:50;;;;;;;9.90;6.50;;;;;;;13.51;58.71;100763.14;104950;1269;63062;-60
2024/04/14 03:00:18;;;;;;;13.00;6.60;;;;;;;13.53;58.62;100759.98;104144;1273;73729;-59
2024/04/14 03:02:45;;;;;;;10.80;6.80;;;;;;;13.54;58.61;100760.80;104148;1267;157873;-60
2024/04/14 03:05:13;;;;;;;9.30;6.30;;;;;;;13.53;58.76;100756.80;104422;1266;59637;-60
2024/04/14 03:07:40;;;;;;;9.70;7.10;;;;;;;13.51;58.85;100746.05;104549;1269;64148;-60
2024/04/14 03:10:08;;;;;;;9.40;6.70;;;;;;;13.49;58.89;100738.09;104341;1270;60151;-61
2024/04/14 03:12:35;;;;;;;11.50;6.90;;;;;;;13.48;59.05;100732.55;104617;1262;63803;-61
2024/04/14 03:15:03;;;;;;;9.50;7.50;;;;;;;13.51;58.88;100727.73;105193;1259;60558;-58
2024/04/14 03:17:31;;;;;;;9.20;6.40;;;;;;;13.54;58.85;100726.37;106138;1258;60442;-59
2024/04/14 03:19:58;;;;;;;10.10;6.80;;;;;;;13.56;58.82;100724.65;105360;1263;65389;-57
2024/04/14 03:22:26;;;;;;;9.90;6.90;;;;;;;13.55;58.89;100726.79;104793;1260;61384;-58
2024/04/14 03:24:53;;;;;;;10.60;7.30;;;;;;;13.55;58.79;100727.23;104743;1263;62488;-59
2024/04/14 03:27:21;;;;;;;11.30;8.10;;;;;;;13.50;58.89;100731.00;105066;1257;60534;-61
2024/04/14 03:29:49;;;;;;;9.00;6.60;;;;;;;13.40;58.97;100732.58;105076;1262;60368;-60
2024/04/14 03:32:16;;;;;;;12.70;6.90;;;;;;;13.32;59.15;100733.08;104886;1259;63625;-58
2024/04/14 03:34:44;;;;;;;10.90;6.90;;;;;;;13.33;59.27;100734.33;104843;1263;61659;-60
2024/04/14 03:37:11;;;;;;;11.20;7.00;;;;;;;13.36;59.35;100736.55;104807;1263;62547;-59
2024/04/14 03:39:39;;;;;;;11.50;6.60;;;;;;;13.39;59.29;100738.99;104859;1259;60492;-60
2024/04/14 03:42:07;;;;;;;10.70;6.90;;;;;;;13.37;59.41;100740.71;104673;1264;62790;-61
2024/04/14 03:44:38;;;;;;;9.30;6.70;;;;;;;13.31;59.51;100739.46;104763;1261;65551;-58
2024/04/14 03:47:05;;;;;;;8.70;6.40;;;;;;;13.25;59.62;100744.19;104910;1259;61394;-59
2024/04/14 03:49:33;;;;;;;12.00;7.30;;;;;;;13.22;59.75;100749.04;104701;1259;63707;-59
2024/04/14 03:52:00;;;;;;;9.00;6.30;;;;;;;13.18;59.86;100746.93;105297;1264;60454;-60
2024/04/14 03:54:28;;;;;;;11.30;6.40;;;;;;;13.17;59.84;100743.95;104896;1259;60432;-60
2024/04/14 03:56:55;;;;;;;8.30;5.40;;;;;;;13.23;59.92;100745.63;104769;1260;63775;-59
2024/04/14 03:59:23;;;;;;;10.20;6.30;;;;;;;13.28;59.85;100755.54;104797;1259;70506;-60
2024/04/14 04:01:50;;;;;;;8.80;6.00;;;;;;;13.28;59.93;100755.02;105553;1260;62599;-60
2024/04/14 04:04:18;;;;;;;10.40;6.60;;;;;;;13.28;59.78;100754.73;105512;1260;60565;-58
2024/04/14 04:06:45;;;;;;;8.20;6.30;;;;;;;13.27;59.77;100754.29;104698;1264;60801;-58
2024/04/14 04:09:14;;;;;;;9.90;6.10;;;;;;;13.28;59.74;100750.30;104763;1260;63713;-59
2024/04/14 04:11:41;;;;;;;9.00;5.50;;;;;;;13.29;59.63;100745.67;104828;1260;61439;-57
2024/04/14 04:14:09;;;;;;;7.90;5.50;;;;;;;13.28;59.44;100737.77;104979;1261;63712;-59
2024/04/14 04:16:36;;;;;;;7.70;6.50;;;;;;;13.35;59.39;100734.23;105998;1263;60567;-59
2024/04/14 04:19:03;;;;;;;7.80;5.40;;;;;;;13.44;59.13;100732.88;104774;1260;60431;-59
2024/04/14 04:21:44;;;;;;;9.20;6.00;;;;;;;13.53;58.99;100738.48;104844;1263;64885;-59
2024/04/14 04:24:12;;;;;;;8.50;6.00;;;;;;;13.59;58.87;100738.88;104893;1261;60813;-59
2024/04/14 04:26:40;;;;;;;8.80;5.20;;;;;;;13.64;58.81;100743.00;104723;1260;64853;-61
2024/04/14 04:29:07;;;;;;;8.10;5.40;;;;;;;13.68;58.58;100748.83;104765;1260;60563;-60
2024/04/14 04:31:34;;;;;;;7.80;5.10;;;;;;;13.71;58.30;100748.91;104796;1259;60855;-60
2024/04/14 04:34:02;;;;;;;9.20;5.40;;;;;;;13.73;58.19;100747.30;104820;1259;65006;-61
2024/04/14 04:36:30;;;;;;;7.60;5.10;;;;;;;13.81;57.73;100742.93;105186;1263;62775;-58
2024/04/14 04:39:02;;;;;;;8.40;5.40;;;;;;;13.90;57.42;100734.19;104709;1259;63696;-57
2024/04/14 04:41:30;;;;;;;7.70;5.50;;;;;;;13.96;57.38;100728.20;105103;1260;61633;-61
2024/04/14 04:43:58;;;;;;;13.60;8.60;;;;;;;14.03;57.27;100727.20;105153;1259;61327;-59
2024/04/14 04:46:25;;;;;;;8.60;5.90;;;;;;;14.11;57.05;100731.99;104695;1260;64995;-59
2024/04/14 04:48:56;;;;;;;9.50;4.80;;;;;;;14.16;56.72;100728.88;104629;1264;60443;-59
2024/04/14 04:51:24;;;;;;;9.30;4.70;;;;;;;14.19;56.46;100729.71;106221;1260;62488;-61
2024/04/14 04:53:51;;;;;;;8.40;4.40;;;;;;;14.18;56.37;100725.50;104785;1262;60903;-57
2024/04/14 04:56:19;;;;;;;8.30;4.70;;;;;;;14.22;56.32;100727.64;104972;1259;60400;-58
2024/04/14 04:58:46;;;;;;;7.30;4.70;;;;;;;14.27;56.06;100725.96;104719;1260;64923;-56
2024/04/14 05:01:14;;;;;;;8.10;4.60;;;;;;;14.32;55.77;100724.60;105039;1259;61994;-57
2024/04/14 05:03:42;;;;;;;6.50;3.90;;;;;;;14.37;55.42;100717.86;104924;1263;62516;-58
2024/04/14 05:06:09;;;;;;;6.70;3.90;;;;;;;14.46;55.08;100716.47;104734;1260;60544;-57
2024/04/14 05:08:37;;;;;;;8.30;4.00;;;;;;;14.59;54.89;100719.40;104851;1261;61155;-58
2024/04/14 05:11:04;;;;;;;6.20;4.30;;;;;;;14.68;54.60;100716.77;105326;1259;64981;-60
2024/04/14 05:13:32;;;;;;;7.10;3.90;;;;;;;14.77;54.45;100707.04;104577;1263;60501;-60
2024/04/14 05:16:02;;;;;;;6.00;3.70;;;;;;;14.85;54.24;100702.34;104855;1258;63784;-59
2024/04/14 05:18:30;;;;;;;8.50;3.30;;;;;;;14.95;53.68;100697.38;105214;1260;60557;-61
2024/04/14 05:20:58;;;;;;;6.20;3.60;;;;;;;15.02;53.46;100699.17;106229;1259;60379;-59
2024/04/14 05:23:25;;;;;;;6.70;3.40;;;;;;;15.10;53.14;100700.21;104815;1259;64921;-59
2024/04/14 05:25:53;;;;;;;6.20;3.80;;;;;;;15.17;52.89;100703.81;104863;1263;60477;-59
2024/04/14 05:28:20;;;;;;;5.50;2.90;;;;;;;15.23;52.56;100700.02;105309;1259;63790;-67
2024/04/14 05:30:48;;;;;;;5.10;2.60;;;;;;;15.30;52.11;100698.13;104631;1260;61131;-57
2024/04/14 05:33:16;;;;;;;5.50;2.90;;;;;;;15.36;51.69;100702.88;104641;1264;60496;-59
2024/04/14 05:35:54;;;;;;;6.00;3.20;;;;;;;15.40;51.29;100704.59;104786;1261;64000;-60
2024/04/14 05:38:22;;;;;;;6.40;2.90;;;;;;;15.44;51.27;100700.33;105553;1261;61345;-60
2024/04/14 05:40:50;;;;;;;5.00;2.50;;;;;;;15.50;51.25;100700.45;104863;1260;64090;-60
2024/04/14 05:43:17;;;;;;;7.80;2.70;;;;;;;15.55;50.93;100700.70;104790;1261;61100;-60
2024/04/14 05:45:45;;;;;;;5.10;2.70;;;;;;;15.61;50.64;100695.68;105003;1262;60817;-59
2024/04/14 05:48:13;;;;;;;5.10;2.50;;;;;;;15.68;50.52;100693.62;104856;1259;63714;-60
2024/04/14 05:50:41;;;;;;;6.60;2.70;;;;;;;15.77;50.40;100693.86;105165;1261;60546;-59
2024/04/14 05:53:11;;;;;;;4.20;1.90;;;;;;;15.87;49.94;100689.23;105049;1261;70715;-57
2024/04/14 05:55:40;;;;;;;4.50;2.20;;;;;;;15.95;49.62;100691.01;105092;1258;60550;-58
2024/04/14 05:58:09;;;;;;;4.50;2.00;;;;;;;16.07;49.49;100687.57;105234;1260;60375;-60
2024/04/14 06:00:36;;;;;;;6.50;2.10;;;;;;;16.19;49.26;100688.84;104992;1257;65540;-64
2024/04/14 06:03:05;;;;;;;5.20;2.10;;;;;;;16.28;48.78;100686.73;104934;1257;61449;-58
2024/04/14 06:05:33;;;;;;;5.20;2.40;;;;;;;16.37;49.00;100686.88;105183;1261;63884;-57
2024/04/14 06:08:02;;;;;;;5.00;2.20;;;;;;;16.48;48.71;100685.42;104799;1259;60659;-57
2024/04/14 06:10:29;;;;;;;7.50;2.40;;;;;;;16.58;48.48;100683.92;104902;1257;60516;-58
2024/04/14 06:12:57;;;;;;;5.80;2.40;;;;;;;16.66;47.89;100680.63;104930;1258;66913;-62
2024/04/14 06:15:26;;;;;;;6.60;2.70;;;;;;;16.72;47.75;100680.73;106327;1257;61317;-60
2024/04/14 06:17:53;;;;;;;5.50;2.70;;;;;;;16.77;47.71;100679.14;105475;1258;62519;-60
2024/04/14 06:20:21;;;;;;;9.20;2.60;;;;;;;16.83;47.61;100674.27;104959;1258;60565;-64
2024/04/14 06:22:48;;;;;;;4.50;2.10;;;;;;;16.90;47.52;100668.37;104996;1260;60612;-56
2024/04/14 06:25:16;;;;;;;6.80;2.60;;;;;;;16.95;47.24;100669.59;105092;1257;65157;-59
2024/04/14 06:27:43;;;;;;;5.60;2.70;;;;;;;17.00;47.46;100661.80;104904;1257;62515;-60
2024/04/14 06:30:12;;;;;;;8.80;2.90;;;;;;;17.09;47.17;100662.78;104949;1257;62677;-56
2024/04/14 06:32:40;;;;;;;5.40;2.50;;;;;;;17.18;46.97;100667.95;105307;1257;61183;-59
2024/04/14 06:35:08;;;;;;;5.90;2.20;;;;;;;17.22;46.46;100659.33;105295;1257;60483;-60
2024/04/14 06:37:35;;;;;;;4.70;2.20;;;;;;;17.24;46.81;100658.23;105089;1257;73895;-59
2024/04/14 06:40:05;;;;;;;4.20;2.00;;;;;;;17.31;46.86;100655.30;104958;1261;60339;-60
2024/04/14 06:42:32;;;;;;;6.60;2.80;;;;;;;17.38;46.45;100656.09;105382;1259;62562;-64
2024/04/14 06:45:00;;;;;;;7.20;2.10;;;;;;;17.43;46.22;100647.81;104807;1258;60455;-65
2024/04/14 06:47:28;;;;;;;7.40;2.10;;;;;;;17.48;46.34;100640.77;105583;1257;60566;-65
2024/04/14 06:49:59;;;;;;;4.80;1.80;;;;;;;17.54;46.22;100640.18;105062;1258;63698;-66
2024/04/14 06:52:26;;;;;;;6.00;2.40;;;;;;;17.65;46.20;100643.21;104924;1261;60465;-61
2024/04/14 06:54:54;;;;;;;4.50;1.90;;;;;;;17.74;46.02;100644.22;105084;1256;63701;-60
2024/04/14 06:57:22;;;;;;;5.70;2.60;;;;;;;17.82;45.73;100641.95;104899;1258;61963;-61
2024/04/14 06:59:49;;;;;;;7.70;2.80;;;;;;;17.89;45.70;100636.55;105040;1257;61426;-62
2024/04/14 07:02:17;;;;;;;5.70;3.00;;;;;;;17.96;45.50;100637.23;105064;1261;65880;-62
2024/04/14 07:04:44;;;;;;;7.50;2.90;;;;;;;18.02;45.35;100636.45;105753;1258;61318;-61
2024/04/14 07:07:12;;;;;;;6.40;2.90;;;;;;;18.07;45.13;100641.64;105210;1258;62533;-60
2024/04/14 07:09:39;;;;;;;7.70;2.40;;;;;;;18.09;45.00;100638.04;104946;1273;61251;-63
2024/04/14 07:12:07;;;;;;;6.40;2.50;;;;;;;18.10;44.83;100638.45;104991;1260;61362;-62
2024/04/14 07:14:35;;;;;;;15.00;3.00;;;;;;;18.11;44.78;100635.05;104950;1259;64517;-69
2024/04/14 07:17:03;;;;;;;5.20;2.30;;;;;;;18.15;44.98;100633.79;104938;1261;61357;-63
2024/04/14 07:19:30;;;;;;;7.30;2.30;;;;;;;18.20;44.78;100635.59;105457;1257;62581;-66
2024/04/14 07:21:58;;;;;;;8.30;2.90;;;;;;;18.23;44.64;100635.25;104756;1258;62018;-61
2024/04/14 07:24:25;;;;;;;5.10;2.20;;;;;;;18.26;44.45;100634.56;104850;1258;61419;-69
2024/04/14 07:26:53;;;;;;;6.90;2.60;;;;;;;18.28;44.62;100634.92;104778;1262;65829;-63
2024/04/14 07:29:21;;;;;;;6.20;2.30;;;;;;;18.30;44.62;100637.71;104829;1257;61663;-66
2024/04/14 07:31:49;;;;;;;4.50;1.90;;;;;;;18.31;44.30;100636.67;104899;1257;62716;-59
2024/04/14 07:34:16;;;;;;;5.40;2.60;;;;;;;18.30;44.08;100629.02;104792;1264;61355;-65
2024/04/14 07:36:44;;;;;;;6.30;2.70;;;;;;;18.28;44.18;100620.51;104920;1258;61370;-62
2024/04/14 07:39:11;;;;;;;6.10;2.00;;;;;;;18.27;44.24;100621.29;104838;1257;64530;-68
2024/04/14 07:41:39;;;;;;;5.60;2.30;;;;;;;18.26;44.41;100619.77;105052;1261;61229;-67
2024/04/14 07:44:06;;;;;;;5.70;2.20;;;;;;;18.27;44.39;100619.00;104956;1258;64162;-66
2024/04/14 07:46:34;;;;;;;5.60;2.50;;;;;;;18.30;44.47;100619.08;104897;1258;61345;-71
2024/04/14 07:49:02;;;;;;;6.60;2.90;;;;;;;18.36;44.43;100620.67;104978;1259;61816;-68
2024/04/14 07:51:31;;;;;;;4.30;2.10;;;;;;;18.43;43.93;100622.98;105436;1258;66718;-57
2024/04/14 07:53:59;;;;;;;5.00;2.40;;;;;;;18.46;44.23;100615.11;104762;1257;62273;-60
2024/04/14 07:56:26;;;;;;;7.80;2.70;;;;;;;18.54;44.51;100613.95;105705;1261;62653;-62
2024/04/14 07:58:54;;;;;;;6.30;2.80;;;;;;;18.66;44.20;100611.73;107037;1263;61381;-58
2024/04/14 08:01:23;;;;;;;6.70;2.50;;;;;;;18.75;43.85;100605.23;104831;1256;61370;-61
2024/04/14 08:03:50;;;;;;;6.00;2.80;;;;;;;18.81;43.66;100601.73;108789;1257;64519;-61
2024/04/14 08:06:24;;;;;;;9.40;2.50;;;;;;;18.87;43.58;100598.89;108824;1257;60430;-63
2024/04/14 08:08:51;;;;;;;5.60;2.60;;;;;;;18.95;43.38;100595.77;106301;1257;62951;-65
2024/04/14 08:11:19;;;;;;;7.80;3.00;;;;;;;19.02;42.98;100590.81;104780;1257;61295;-56
2024/04/14 08:13:47;;;;;;;5.90;2.80;;;;;;;19.09;43.08;100588.79;108848;1260;59274;-62
2024/04/14 08:16:14;;;;;;;5.40;2.50;;;;;;;19.18;43.11;100582.14;108801;1257;66280;-64
2024/04/14 08:18:44;;;;;;;5.30;2.50;;;;;;;19.29;43.20;100574.60;108808;1256;61574;-63
2024/04/14 08:21:12;;;;;;;6.10;2.70;;;;;;;19.44;42.99;100571.15;108830;1256;64339;-60
2024/04/14 08:23:39;;;;;;;6.50;3.10;;;;;;;19.62;42.84;100569.22;107625;1257;61323;-61
2024/04/14 08:26:07;;;;;;;5.90;3.30;;;;;;;19.79;42.62;100563.20;104773;1257;61530;-64
2024/04/14 08:28:34;;;;;;;5.90;3.00;;;;;;;19.91;42.23;100562.90;107788;1258;64527;-60
2024/04/14 08:31:02;;;;;;;7.90;3.40;;;;;;;19.97;41.93;100559.30;108784;1257;60274;-58
2024/04/14 08:33:29;;;;;;;6.30;3.20;;;;;;;20.02;41.54;100555.02;108889;1255;62612;-59
2024/04/14 08:35:57;;;;;;;7.80;3.10;;;;;;;20.03;41.52;100547.08;108887;1257;58985;-57
2024/04/14 08:38:24;;;;;;;6.10;3.10;;;;;;;20.08;41.91;100540.05;108998;1255;60974;-59
2024/04/14 08:40:52;;;;;;;7.60;2.90;;;;;;;20.18;41.92;100533.00;109138;1254;65794;-58
2024/04/14 08:43:20;;;;;;;7.30;3.70;;;;;;;20.27;41.32;100529.35;106638;1258;63763;-57
2024/04/14 08:45:53;;;;;;;6.80;3.50;;;;;;;20.31;41.46;100520.29;105986;1257;62539;-57
2024/04/14 08:48:21;;;;;;;5.10;2.80;;;;;;;20.37;41.41;100521.55;107559;1255;61838;-62
2024/04/14 08:50:49;;;;;;;5.30;3.10;;;;;;;20.44;41.45;100517.64;104955;1259;61180;-63
2024/04/14 08:53:19;;;;;;;7.30;3.20;;;;;;;20.53;41.41;100519.05;105070;1256;65970;-58
2024/04/14 08:55:47;;;;;;;5.10;3.00;;;;;;;20.62;41.05;100514.24;105096;1259;61252;-64
2024/04/14 08:58:15;;;;;;;6.20;2.80;;;;;;;20.71;40.89;100512.48;105048;1259;64275;-63
2024/04/14 09:00:46;;;;;;;5.80;3.30;;;;;;;20.79;40.69;100505.05;105432;1256;61333;-62
2024/04/14 09:03:14;;;;;;;6.00;3.20;;;;;;;20.88;40.69;100503.06;104914;1254;61282;-59
2024/04/14 09:05:41;;;;;;;5.80;3.10;;;;;;;20.98;40.41;100498.36;105068;1259;68024;-60
2024/04/14 09:08:09;;;;;;;7.70;3.20;;;;;;;21.04;40.24;100494.73;105056;1256;61658;-57
2024/04/14 09:10:36;;;;;;;8.50;3.20;;;;;;;21.10;40.07;100485.29;109020;1256;62507;-61
2024/04/14 09:13:05;;;;;;;8.50;3.50;;;;;;;21.17;40.14;100482.77;109013;1254;59293;-57
2024/04/14 09:15:40;;;;;;;8.00;3.40;;;;;;;21.27;39.76;100480.10;109022;1254;59413;-56
2024/04/14 09:18:08;;;;;;;6.70;3.20;;;;;;;21.36;39.47;100469.43;106858;1254;65875;-55
2024/04/14 09:20:36;;;;;;;8.20;3.30;;;;;;;21.44;39.58;100462.93;105463;1256;61397;-62
2024/04/14 09:23:04;;;;;;;6.20;3.30;;;;;;;21.54;39.55;100459.02;105405;1258;62678;-59
2024/04/14 09:25:32;;;;;;;7.40;3.90;;;;;;;21.64;39.51;100458.77;105471;1261;61311;-58
2024/04/14 09:28:13;;;;;;;8.30;3.30;;;;;;;21.70;39.07;100457.62;105652;1253;61282;-59
2024/04/14 09:30:41;;;;;;;8.10;3.10;;;;;;;21.71;39.10;100451.84;105248;1256;65888;-59
2024/04/14 09:33:09;;;;;;;6.00;3.50;;;;;;;21.74;39.00;100448.05;105071;1260;63767;-57
2024/04/14 09:35:36;;;;;;;7.40;3.50;;;;;;;21.78;39.00;100444.95;105034;1255;62541;-55
2024/04/14 09:38:05;;;;;;;7.40;4.40;;;;;;;21.84;39.71;100442.89;105124;1259;61318;-55
2024/04/14 09:40:34;;;;;;;6.60;4.10;;;;;;;21.99;39.80;100433.67;105602;1258;61196;-60
2024/04/14 09:43:02;;;;;;;6.20;3.60;;;;;;;22.14;38.86;100434.92;105334;1256;65128;-56
2024/04/14 09:45:30;;;;;;;7.50;3.90;;;;;;;22.17;38.50;100431.50;105066;1254;70425;-55
2024/04/14 09:47:58;;;;;;;8.70;4.10;;;;;;;22.20;38.69;100427.77;105484;1258;62590;-58
2024/04/14 09:50:25;;;;;;;7.70;4.10;;;;;;;22.25;38.53;100419.59;104903;1256;61356;-57
2024/04/14 09:52:53;;;;;;;9.40;4.10;;;;;;;22.28;38.76;100416.20;105053;1256;61434;-59
2024/04/14 09:55:20;;;;;;;9.50;4.20;;;;;;;22.35;38.62;100416.23;104812;1261;65824;-59
2024/04/14 09:57:51;;;;;;;6.90;4.20;;;;;;;22.36;38.67;100410.35;105035;1255;62576;-56
2024/04/14 10:00:18;;;;;;;6.70;4.50;;;;;;;22.40;38.30;100410.02;105187;1253;63949;-63
2024/04/14 10:02:53;;;;;;;7.50;4.50;;;;;;;22.42;38.28;100406.38;104707;1255;61202;-62
2024/04/14 10:05:21;;;;;;;9.00;4.90;;;;;;;22.43;38.35;100404.57;105615;1260;61274;-65
2024/04/14 10:07:51;;;;;;;7.30;4.10;;;;;;;22.42;38.15;100407.59;105661;1256;66749;-68
2024/04/14 10:10:19;;;;;;;8.50;4.10;;;;;;;22.41;38.12;100400.36;105769;1256;62037;-68
2024/04/14 10:12:47;;;;;;;8.60;4.70;;;;;;;22.44;38.18;100393.55;104886;1256;62784;-66
2024/04/14 10:15:15;;;;;;;8.30;5.10;;;;;;;22.46;38.16;100391.33;105124;1259;61437;-63
2024/04/14 10:17:42;;;;;;;10.20;5.30;;;;;;;22.50;38.12;100384.98;105137;1262;62067;-64
2024/04/14 10:20:10;;;;;;;7.30;4.30;;;;;;;22.55;38.04;100382.23;105166;1256;64524;-66
2024/04/14 10:22:41;;;;;;;7.60;4.60;;;;;;;22.59;37.61;100381.93;105041;1254;61500;-60
2024/04/14 10:25:19;;;;;;;8.00;4.50;;;;;;;22.59;37.52;100378.15;105272;1255;62517;-62
2024/04/14 10:27:47;;;;;;;7.70;4.40;;;;;;;22.59;37.81;100372.70;105755;1255;61257;-60
2024/04/14 10:30:22;;;;;;;6.30;4.40;;;;;;;22.63;37.88;100366.23;104937;1261;61251;-65
2024/04/14 10:33:07;;;;;;;8.80;4.10;;;;;;;22.71;37.59;100355.89;105009;1261;67126;-62
2024/04/14 10:35:35;;;;;;;6.70;4.30;;;;;;;22.83;37.20;100345.09;105301;1255;61336;-62
2024/04/14 10:38:02;;;;;;;7.90;4.70;;;;;;;22.90;37.09;100341.02;105362;1259;62546;-64
2024/04/14 10:40:30;;;;;;;6.80;4.20;;;;;;;22.96;37.15;100338.70;105083;1256;61551;-62
2024/04/14 10:42:57;;;;;;;7.60;4.80;;;;;;;23.03;36.82;100335.70;104982;1256;61144;-61
2024/04/14 10:45:26;;;;;;;7.90;4.30;;;;;;;23.06;36.81;100324.98;105608;1260;67113;-61
2024/04/14 10:47:57;;;;;;;7.30;3.60;;;;;;;23.11;36.19;100322.52;105101;1256;62442;-61
2024/04/14 10:50:28;;;;;;;8.40;4.30;;;;;;;23.14;35.88;100313.48;105730;1257;63838;-59
2024/04/14 10:52:56;;;;;;;7.60;4.30;;;;;;;23.16;35.97;100313.17;105787;1256;61347;-61
2024/04/14 10:55:26;;;;;;;10.10;4.10;;;;;;;23.18;35.80;100313.52;105849;1254;61375;-59
2024/04/14 10:57:54;;;;;;;10.50;4.50;;;;;;;23.21;35.88;100303.89;105160;1257;64604;-69
2024/04/14 11:00:21;;;;;;;7.20;4.60;;;;;;;23.25;35.57;100306.46;105816;1256;61345;-60
2024/04/14 11:02:49;;;;;;;7.90;4.60;;;;;;;23.28;35.53;100296.04;105655;1260;63871;-72
2024/04/14 11:05:17;;;;;;;7.90;4.20;;;;;;;23.33;35.91;100290.37;104996;1256;61269;-67
2024/04/14 11:07:44;;;;;;;7.80;4.70;;;;;;;23.44;35.66;100282.35;105178;1256;61356;-66
2024/04/14 11:10:12;;;;;;;8.90;4.50;;;;;;;23.53;35.27;100272.20;105027;1261;64496;-62
2024/04/14 11:12:40;;;;;;;9.30;4.80;;;;;;;23.62;35.61;100254.19;105214;1260;61346;-58
2024/04/14 11:15:09;;;;;;;8.50;4.90;;;;;;;23.77;35.61;100249.80;105336;1256;63929;-59
2024/04/14 11:17:38;;;;;;;8.00;4.70;;;;;;;23.91;34.12;100244.30;105192;1256;61310;-64
2024/04/14 11:20:06;;;;;;;6.40;3.70;;;;;;;23.98;33.60;100240.88;105056;1260;61328;-65